createdAt,value
2019-02-22T00:01:16.450Z,102756.52
2019-02-22T00:03:44.750Z,102753.78
2019-02-22T00:06:13.165Z,102763.25
2019-02-22T00:08:41.461Z,102755.13
2019-02-22T00:11:09.784Z,102760.83
2019-02-22T00:13:38.048Z,102756.70
2019-02-22T00:16:06.414Z,102757.58
2019-02-22T00:18:34.725Z,102757.84
2019-02-22T00:21:03.758Z,102761.89
2019-02-22T00:23:32.060Z,102771.87
2019-02-22T00:26:00.308Z,102767.27
2019-02-22T00:28:28.601Z,102768.10
2019-02-22T00:30:56.858Z,102763.25
2019-02-22T00:33:25.771Z,102771.10
2019-02-22T00:35:54.106Z,102766.71
2019-02-22T00:38:22.451Z,102768.91
2019-02-22T00:40:51.383Z,102768.87
2019-02-22T00:43:19.665Z,102764.56
2019-02-22T00:45:47.916Z,102763.20
2019-02-22T00:48:16.313Z,102765.40
2019-02-22T00:50:45.188Z,102769.71
2019-02-22T00:53:13.441Z,102764.05
2019-02-22T00:55:41.764Z,102777.02
2019-02-22T00:58:10.089Z,102780.56
2019-02-22T01:00:38.344Z,102781.05
2019-02-22T01:03:06.665Z,102783.75
2019-02-22T01:05:34.964Z,102789.96
2019-02-22T01:08:03.221Z,102790.22
2019-02-22T01:10:31.674Z,102794.31
2019-02-22T01:13:00.023Z,102799.72
2019-02-22T01:15:28.343Z,102798.33
2019-02-22T01:17:56.637Z,102801.84
2019-02-22T01:20:24.967Z,102817.27
2019-02-22T01:22:53.252Z,102812.66
2019-02-22T01:25:21.564Z,102808.89
2019-02-22T01:27:50.521Z,102810.25
2019-02-22T01:30:18.827Z,102810.76
2019-02-22T01:32:47.082Z,102814.56
2019-02-22T01:35:15.453Z,102815.91
2019-02-22T01:37:43.765Z,102822.16
2019-02-22T01:40:12.037Z,102817.81
2019-02-22T01:42:40.399Z,102819.71
2019-02-22T01:45:08.753Z,102827.58
2019-02-22T01:47:37.134Z,102833.50
2019-02-22T01:50:06.431Z,102829.44
2019-02-22T01:52:34.727Z,102832.44
2019-02-22T01:55:03.053Z,102825.67
2019-02-22T01:57:31.298Z,102824.03
2019-02-22T01:59:59.593Z,102832.73
2019-02-22T02:02:27.880Z,102827.03
2019-02-22T02:04:56.191Z,102826.27
2019-02-22T02:07:24.463Z,102820.31
2019-02-22T02:09:52.719Z,102815.44
2019-02-22T02:12:20.989Z,102823.56
2019-02-22T02:14:49.286Z,102823.02
2019-02-22T02:17:17.933Z,102834.93
2019-02-22T02:19:46.304Z,102841.19
2019-02-22T02:22:14.742Z,102847.69
2019-02-22T02:24:43.019Z,102851.75
2019-02-22T02:27:11.270Z,102858.22
2019-02-22T02:29:39.553Z,102863.92
2019-02-22T02:32:08.084Z,102866.34
2019-02-22T02:34:36.491Z,102876.05
2019-02-22T02:37:04.745Z,102875.72
2019-02-22T02:39:33.028Z,102887.13
2019-02-22T02:42:01.457Z,102889.58
2019-02-22T02:44:29.719Z,102903.15
2019-02-22T02:46:57.986Z,102906.66
2019-02-22T02:49:26.380Z,102907.77
2019-02-22T02:51:54.700Z,102909.37
2019-02-22T02:54:22.984Z,102906.95
2019-02-22T02:56:51.317Z,102914.35
2019-02-22T02:59:19.625Z,102913.22
2019-02-22T03:01:47.944Z,102909.41
2019-02-22T03:04:16.197Z,102913.77
2019-02-22T03:06:47.847Z,102919.17
2019-02-22T03:09:16.104Z,102915.66
2019-02-22T03:11:44.382Z,102917.53
2019-02-22T03:14:12.754Z,102914.27
2019-02-22T03:16:41.129Z,102919.94
2019-02-22T03:19:09.436Z,102928.05
2019-02-22T03:21:38.033Z,102927.25
2019-02-22T03:24:06.318Z,102934.01
2019-02-22T03:26:34.717Z,102930.50
2019-02-22T03:29:03.054Z,102933.20
2019-02-22T03:31:31.321Z,102941.87
2019-02-22T03:33:59.635Z,102941.06
2019-02-22T03:36:27.893Z,102946.23
2019-02-22T03:38:56.159Z,102937.86
2019-02-22T03:41:33.001Z,102951.14
2019-02-22T03:43:54.467Z,102950.33
2019-02-22T03:46:22.746Z,102953.59
2019-02-22T03:48:51.089Z,102957.66
2019-02-22T03:51:19.438Z,102958.79
2019-02-22T03:53:48.960Z,102957.95
2019-02-22T03:56:17.226Z,102958.50
2019-02-22T03:58:45.586Z,102962.26
2019-02-22T04:01:13.903Z,102964.92
2019-02-22T04:03:42.201Z,102974.93
2019-02-22T04:06:10.471Z,102970.08
2019-02-22T04:08:38.779Z,102977.14
2019-02-22T04:11:07.059Z,102980.14
2019-02-22T04:13:35.664Z,102983.09
2019-02-22T04:16:03.927Z,102983.61
2019-02-22T04:18:32.227Z,102985.80
2019-02-22T04:21:01.517Z,102988.46
2019-02-22T04:23:29.768Z,102990.38
2019-02-22T04:25:58.088Z,102987.96
2019-02-22T04:28:26.364Z,102988.50
2019-02-22T04:30:54.690Z,102983.09
2019-02-22T04:33:22.994Z,102995.27
2019-02-22T04:35:51.370Z,102989.02
2019-02-22T04:38:19.661Z,102991.73
2019-02-22T04:40:47.910Z,102995.53
2019-02-22T04:43:16.193Z,102992.02
2019-02-22T04:45:44.505Z,102993.08
2019-02-22T04:48:12.778Z,102992.56
2019-02-22T04:50:41.033Z,103004.98
2019-02-22T04:53:09.444Z,103003.64
2019-02-22T04:55:37.696Z,103009.86
2019-02-22T04:58:05.959Z,103016.08
2019-02-22T05:00:34.273Z,103022.84
2019-02-22T05:03:02.556Z,103020.97
2019-02-22T05:05:31.019Z,103027.19
2019-02-22T05:07:59.425Z,103018.78
2019-02-22T05:10:27.677Z,103022.59
2019-02-22T05:12:55.939Z,103025.30
2019-02-22T05:15:24.275Z,103023.68
2019-02-22T05:17:52.545Z,103028.00
2019-02-22T05:20:20.798Z,103032.91
2019-02-22T05:22:49.073Z,103031.00
2019-02-22T05:25:17.338Z,103026.39
2019-02-22T05:27:45.640Z,103030.45
2019-02-22T05:30:13.894Z,103030.95
2019-02-22T05:32:42.164Z,103032.91
2019-02-22T05:35:10.510Z,103037.20
2019-02-22T05:37:38.759Z,103037.72
2019-02-22T05:40:07.092Z,103038.83
2019-02-22T05:42:35.401Z,103046.13
2019-02-22T05:45:05.485Z,103054.25
2019-02-22T05:47:33.780Z,103058.02
2019-02-22T05:50:02.040Z,103057.75
2019-02-22T05:52:31.072Z,103062.86
2019-02-22T05:54:59.427Z,103066.08
2019-02-22T05:57:27.723Z,103078.55
2019-02-22T05:59:56.108Z,103080.20
2019-02-22T06:02:24.375Z,103088.86
2019-02-22T06:04:52.627Z,103090.48
2019-02-22T06:07:20.913Z,103088.32
2019-02-22T06:09:49.242Z,103095.33
2019-02-22T06:12:18.545Z,103095.03
2019-02-22T06:14:47.002Z,103098.84
2019-02-22T06:17:15.319Z,103102.61
2019-02-22T06:19:43.693Z,103098.28
2019-02-22T06:22:12.206Z,103102.34
2019-02-22T06:24:40.476Z,103114.78
2019-02-22T06:27:08.738Z,103112.08
2019-02-22T06:29:37.016Z,103122.69
2019-02-22T06:32:05.272Z,103119.98
2019-02-22T06:34:34.354Z,103123.20
2019-02-22T06:37:02.659Z,103133.51
2019-02-22T06:39:30.939Z,103129.45
2019-02-22T06:41:59.329Z,103138.37
2019-02-22T06:44:27.655Z,103144.89
2019-02-22T06:46:55.943Z,103145.95
2019-02-22T06:49:25.838Z,103143.24
2019-02-22T06:51:54.150Z,103146.79
2019-02-22T06:54:22.415Z,103144.33
2019-02-22T06:56:50.689Z,103145.95
2019-02-22T06:59:18.968Z,103151.61
2019-02-22T07:01:49.873Z,103154.31
2019-02-22T07:04:17.290Z,103155.97
2019-02-22T07:06:45.675Z,103156.20
2019-02-22T07:09:13.945Z,103159.42
2019-02-22T07:11:46.568Z,103172.74
2019-02-22T07:14:14.881Z,103180.07
2019-02-22T07:16:43.280Z,103176.82
2019-02-22T07:19:11.495Z,103182.78
2019-02-22T07:21:51.832Z,103190.35
2019-02-22T07:24:09.835Z,103192.55
2019-02-22T07:26:38.094Z,103193.91
2019-02-22T07:29:06.340Z,103202.31
2019-02-22T07:31:34.662Z,103200.72
2019-02-22T07:34:02.968Z,103202.31
2019-02-22T07:36:31.230Z,103209.59
2019-02-22T07:38:59.514Z,103209.65
2019-02-22T07:41:27.799Z,103214.49
2019-02-22T07:43:56.168Z,103213.20
2019-02-22T07:46:24.452Z,103223.17
2019-02-22T07:48:52.771Z,103217.77
2019-02-22T07:51:21.031Z,103219.41
2019-02-22T07:53:49.353Z,103221.06
2019-02-22T07:56:19.199Z,103221.06
2019-02-22T07:58:47.556Z,103229.45
2019-02-22T08:01:15.857Z,103237.57
2019-02-22T08:03:44.102Z,103251.34
2019-02-22T08:06:12.390Z,103261.66
2019-02-22T08:08:40.681Z,103266.83
2019-02-22T08:11:08.956Z,103273.35
2019-02-22T08:13:37.440Z,103270.70
2019-02-22T08:16:05.684Z,103273.70
2019-02-22T08:18:33.972Z,103282.64
2019-02-22T08:21:02.571Z,103278.28
2019-02-22T08:23:30.832Z,103288.35
2019-02-22T08:25:59.167Z,103297.09
2019-02-22T08:28:27.431Z,103293.63
2019-02-22T08:30:55.697Z,103298.05
2019-02-22T08:33:23.992Z,103304.63
2019-02-22T08:35:52.296Z,103308.75
2019-02-22T08:38:20.616Z,103311.20
2019-02-22T08:40:49.541Z,103323.39
2019-02-22T08:43:17.879Z,103328.86
2019-02-22T08:45:46.187Z,103327.56
2019-02-22T08:48:14.439Z,103333.98
2019-02-22T08:50:42.714Z,103343.94
2019-02-22T08:53:10.986Z,103345.50
2019-02-22T08:55:39.296Z,103345.80
2019-02-22T08:58:07.557Z,103354.77
2019-02-22T09:00:36.454Z,103361.80
2019-02-22T09:03:04.710Z,103363.77
2019-02-22T09:05:32.966Z,103359.76
2019-02-22T09:08:01.349Z,103359.94
2019-02-22T09:10:29.611Z,103367.88
2019-02-22T09:12:57.883Z,103365.73
2019-02-22T09:15:26.162Z,103366.09
2019-02-22T09:17:55.381Z,103363.45
2019-02-22T09:20:23.794Z,103365.09
2019-02-22T09:22:52.110Z,103370.22
2019-02-22T09:25:20.357Z,103368.67
2019-02-22T09:27:48.644Z,103368.19
2019-02-22T09:30:16.963Z,103367.19
2019-02-22T09:32:45.339Z,103374.61
2019-02-22T09:35:13.951Z,103372.23
2019-02-22T09:37:42.199Z,103375.05
2019-02-22T09:40:14.380Z,103381.39
2019-02-22T09:42:42.062Z,103378.25
2019-02-22T09:45:11.909Z,103386.75
2019-02-22T09:47:40.218Z,103394.88
2019-02-22T09:50:11.267Z,103399.90
2019-02-22T09:52:39.526Z,103402.71
2019-02-22T09:55:09.841Z,103411.16
2019-02-22T09:57:38.178Z,103418.78
2019-02-22T10:00:10.090Z,103418.29
2019-02-22T10:02:38.320Z,103420.00
2019-02-22T10:05:08.551Z,103422.56
2019-02-22T10:07:36.835Z,103424.44
2019-02-22T10:10:07.517Z,103418.05
2019-02-22T10:12:35.772Z,103427.64
2019-02-22T10:15:04.901Z,103429.29
2019-02-22T10:17:34.015Z,103428.50
2019-02-22T10:20:02.338Z,103434.47
2019-02-22T10:22:30.673Z,103431.02
2019-02-22T10:24:58.993Z,103430.20
2019-02-22T10:27:27.291Z,103435.19
2019-02-22T10:29:55.589Z,103443.37
2019-02-22T10:32:23.933Z,103432.93
2019-02-22T10:34:52.257Z,103437.09
2019-02-22T10:37:20.508Z,103436.85
2019-02-22T10:39:48.996Z,103434.48
2019-02-22T10:42:17.328Z,103444.05
2019-02-22T10:44:45.680Z,103445.39
2019-02-22T10:47:14.002Z,103448.12
2019-02-22T10:49:42.302Z,103451.67
2019-02-22T10:52:10.627Z,103452.43
2019-02-22T10:54:38.949Z,103453.03
2019-02-22T10:57:07.291Z,103454.88
2019-02-22T10:59:35.544Z,103452.92
2019-02-22T11:02:03.818Z,103462.52
2019-02-22T11:04:32.115Z,103463.98
2019-02-22T11:07:00.538Z,103467.85
2019-02-22T11:09:28.827Z,103464.94
2019-02-22T11:11:57.088Z,103462.02
2019-02-22T11:14:29.174Z,103460.47
2019-02-22T11:16:55.500Z,103467.00
2019-02-22T11:19:23.816Z,103470.76
2019-02-22T11:21:52.099Z,103471.32
2019-02-22T11:24:20.387Z,103483.03
2019-02-22T11:26:48.676Z,103483.38
2019-02-22T11:29:16.954Z,103481.02
2019-02-22T11:31:45.264Z,103480.41
2019-02-22T11:34:13.589Z,103485.28
2019-02-22T11:36:41.897Z,103482.81
2019-02-22T11:39:10.164Z,103487.70
2019-02-22T11:41:38.475Z,103484.49
2019-02-22T11:44:08.437Z,103483.73
2019-02-22T11:46:36.749Z,103485.14
2019-02-22T11:49:05.003Z,103489.01
2019-02-22T11:51:34.050Z,103493.73
2019-02-22T11:54:02.282Z,103485.68
2019-02-22T11:56:30.586Z,103480.72
2019-02-22T11:58:58.870Z,103486.14
2019-02-22T12:01:27.141Z,103480.47
2019-02-22T12:03:55.434Z,103487.10
2019-02-22T12:06:23.796Z,103476.30
2019-02-22T12:08:52.307Z,103483.42
2019-02-22T12:11:20.610Z,103487.75
2019-02-22T12:13:48.936Z,103489.41
2019-02-22T12:16:17.217Z,103496.75
2019-02-22T12:18:45.529Z,103498.25
2019-02-22T12:21:13.860Z,103492.96
2019-02-22T12:23:42.133Z,103497.13
2019-02-22T12:26:10.388Z,103498.75
2019-02-22T12:28:38.668Z,103505.31
2019-02-22T12:31:07.007Z,103510.75
2019-02-22T12:33:35.248Z,103515.53
2019-02-22T12:36:04.584Z,103518.20
2019-02-22T12:38:32.876Z,103526.30
2019-02-22T12:41:01.184Z,103524.03
2019-02-22T12:43:29.521Z,103527.09
2019-02-22T12:45:57.816Z,103523.78
2019-02-22T12:48:26.066Z,103520.51
2019-02-22T12:50:55.026Z,103527.80
2019-02-22T12:53:23.321Z,103533.38
2019-02-22T12:55:51.777Z,103540.80
2019-02-22T12:58:20.030Z,103546.00
2019-02-22T13:00:48.281Z,103539.36
2019-02-22T13:03:16.572Z,103535.34
2019-02-22T13:05:44.881Z,103544.03
2019-02-22T13:08:13.189Z,103540.39
2019-02-22T13:10:41.458Z,103537.27
2019-02-22T13:13:10.071Z,103536.92
2019-02-22T13:15:38.416Z,103529.95
2019-02-22T13:18:06.720Z,103526.80
2019-02-22T13:20:35.020Z,103526.80
2019-02-22T13:23:03.353Z,103522.25
2019-02-22T13:25:31.607Z,103528.46
2019-02-22T13:27:59.865Z,103527.94
2019-02-22T13:30:28.243Z,103529.96
2019-02-22T13:32:56.519Z,103528.13
2019-02-22T13:35:24.822Z,103534.09
2019-02-22T13:37:53.140Z,103542.09
2019-02-22T13:40:21.436Z,103544.07
2019-02-22T13:42:49.926Z,103551.53
2019-02-22T13:45:26.777Z,103551.13
2019-02-22T13:47:48.274Z,103548.98
2019-02-22T13:50:17.673Z,103548.28
2019-02-22T13:52:45.969Z,103545.46
2019-02-22T13:55:14.496Z,103555.58
2019-02-22T13:57:43.384Z,103546.88
2019-02-22T14:00:17.755Z,103548.36
2019-02-22T14:02:46.085Z,103545.95
2019-02-22T14:05:14.378Z,103558.97
2019-02-22T14:07:51.420Z,103557.85
2019-02-22T14:10:20.268Z,103558.97
2019-02-22T14:12:49.090Z,103567.40
2019-02-22T14:15:18.838Z,103564.20
2019-02-22T14:17:48.224Z,103558.78
2019-02-22T14:20:16.466Z,103560.95
2019-02-22T14:22:44.899Z,103550.09
2019-02-22T14:25:13.197Z,103549.39
2019-02-22T14:27:41.462Z,103549.97
2019-02-22T14:30:12.594Z,103550.56
2019-02-22T14:32:40.906Z,103547.91
2019-02-22T14:35:09.161Z,103542.83
2019-02-22T14:37:37.454Z,103549.02
2019-02-22T14:40:10.921Z,103547.95
2019-02-22T14:42:39.224Z,103550.08
2019-02-22T14:45:09.260Z,103549.20
2019-02-22T14:47:37.538Z,103554.03
2019-02-22T14:50:09.090Z,103563.31
2019-02-22T14:52:37.388Z,103556.23
2019-02-22T14:55:07.095Z,103547.30
2019-02-22T14:57:35.396Z,103538.98
2019-02-22T15:00:06.178Z,103540.58
2019-02-22T15:02:34.474Z,103541.07
2019-02-22T15:05:02.915Z,103545.58
2019-02-22T15:07:31.163Z,103549.59
2019-02-22T15:09:59.470Z,103544.22
2019-02-22T15:12:27.938Z,103555.31
2019-02-22T15:14:56.491Z,103558.29
2019-02-22T15:17:27.428Z,103561.55
2019-02-22T15:19:56.049Z,103567.21
2019-02-22T15:22:24.311Z,103557.12
2019-02-22T15:24:53.789Z,103553.05
2019-02-22T15:27:22.258Z,103558.97
2019-02-22T15:29:50.676Z,103550.89
2019-02-22T15:32:18.928Z,103557.17
2019-02-22T15:34:47.361Z,103573.15
2019-02-22T15:37:15.641Z,103582.48
2019-02-22T15:39:43.946Z,103588.72
2019-02-22T15:42:12.248Z,103587.12
2019-02-22T15:44:40.491Z,103597.72
2019-02-22T15:47:12.017Z,103604.56
2019-02-22T15:49:38.858Z,103609.98
2019-02-22T15:52:07.113Z,103615.77
2019-02-22T15:54:35.440Z,103617.94
2019-02-22T15:57:03.694Z,103609.80
2019-02-22T15:59:31.986Z,103613.36
2019-02-22T16:02:00.261Z,103614.77
2019-02-22T16:04:45.351Z,103607.39
2019-02-22T16:07:13.737Z,103597.89
2019-02-22T16:09:42.051Z,103588.34
2019-02-22T16:12:10.419Z,103593.20
2019-02-22T16:14:38.731Z,103592.30
2019-02-22T16:17:07.350Z,103581.75
2019-02-22T16:19:35.652Z,103580.64
2019-02-22T16:22:03.956Z,103582.23
2019-02-22T16:24:32.207Z,103588.61
2019-02-22T16:27:03.202Z,103587.19
2019-02-22T16:29:31.546Z,103601.30
2019-02-22T16:31:59.972Z,103607.23
2019-02-22T16:34:28.270Z,103605.87
2019-02-22T16:36:56.607Z,103603.28
2019-02-22T16:39:24.918Z,103607.36
2019-02-22T16:41:53.182Z,103622.81
2019-02-22T16:44:21.470Z,103639.08
2019-02-22T16:46:49.774Z,103645.19
2019-02-22T16:49:18.184Z,103635.13
2019-02-22T16:51:46.491Z,103622.06
2019-02-22T16:54:14.771Z,103615.49
2019-02-22T16:56:43.187Z,103619.80
2019-02-22T16:59:11.443Z,103636.30
2019-02-22T17:01:39.844Z,103650.64
2019-02-22T17:04:08.130Z,103642.72
2019-02-22T17:06:36.403Z,103643.80
2019-02-22T17:09:05.214Z,103641.61
2019-02-22T17:11:33.476Z,103651.33
2019-02-22T17:14:01.920Z,103652.63
2019-02-22T17:16:30.184Z,103648.80
2019-02-22T17:18:58.442Z,103639.85
2019-02-22T17:21:26.770Z,103637.89
2019-02-22T17:23:55.119Z,103643.02
2019-02-22T17:26:23.416Z,103652.50
2019-02-22T17:28:51.703Z,103650.81
2019-02-22T17:31:20.012Z,103652.37
2019-02-22T17:33:48.568Z,103652.84
2019-02-22T17:36:26.468Z,103646.79
2019-02-22T17:38:47.027Z,103649.20
2019-02-22T17:41:15.326Z,103644.52
2019-02-22T17:43:43.631Z,103652.59
2019-02-22T17:46:11.973Z,103649.06
2019-02-22T17:48:40.234Z,103650.80
2019-02-22T17:51:08.493Z,103656.28
2019-02-22T17:53:36.843Z,103667.80
2019-02-22T17:56:05.100Z,103665.33
2019-02-22T17:58:33.798Z,103680.39
2019-02-22T18:01:02.414Z,103689.34
2019-02-22T18:03:30.674Z,103699.05
2019-02-22T18:05:58.997Z,103682.22
2019-02-22T18:08:27.296Z,103683.78
2019-02-22T18:10:55.548Z,103677.78
2019-02-22T18:13:23.803Z,103675.31
2019-02-22T18:15:52.119Z,103672.94
2019-02-22T18:18:22.018Z,103677.75
2019-02-22T18:20:50.651Z,103685.56
2019-02-22T18:23:19.692Z,103685.26
2019-02-22T18:25:47.998Z,103676.72
2019-02-22T18:28:16.301Z,103685.08
2019-02-22T18:30:44.551Z,103685.15
2019-02-22T18:33:12.897Z,103680.71
2019-02-22T18:35:41.149Z,103669.34
2019-02-22T18:38:12.269Z,103673.09
2019-02-22T18:40:40.572Z,103675.53
2019-02-22T18:43:08.823Z,103669.44
2019-02-22T18:45:37.100Z,103677.79
2019-02-22T18:48:05.466Z,103684.80
2019-02-22T18:50:33.748Z,103692.91
2019-02-22T18:53:02.262Z,103691.18
2019-02-22T18:55:30.544Z,103696.52
2019-02-22T18:57:58.836Z,103705.69
2019-02-22T19:00:27.169Z,103703.76
2019-02-22T19:02:55.474Z,103712.69
2019-02-22T19:05:23.759Z,103719.31
2019-02-22T19:07:52.031Z,103711.89
2019-02-22T19:10:20.457Z,103708.95
2019-02-22T19:12:48.879Z,103709.72
2019-02-22T19:15:17.245Z,103705.35
2019-02-22T19:17:45.675Z,103708.88
2019-02-22T19:20:16.177Z,103706.70
2019-02-22T19:22:44.438Z,103705.20
2019-02-22T19:25:13.032Z,103697.31
2019-02-22T19:27:41.737Z,103693.69
2019-02-22T19:30:15.636Z,103688.74
2019-02-22T19:32:44.013Z,103682.13
2019-02-22T19:35:12.291Z,103682.59
2019-02-22T19:37:40.956Z,103691.37
2019-02-22T19:40:12.067Z,103691.37
2019-02-22T19:42:40.807Z,103702.05
2019-02-22T19:45:11.209Z,103706.17
2019-02-22T19:47:42.086Z,103697.70
2019-02-22T19:50:11.766Z,103698.67
2019-02-22T19:52:40.092Z,103701.83
2019-02-22T19:55:11.308Z,103703.11
2019-02-22T19:57:40.014Z,103711.37
2019-02-22T20:00:15.372Z,103722.84
2019-02-22T20:02:44.142Z,103725.03
2019-02-22T20:05:13.504Z,103720.90
2019-02-22T20:07:42.182Z,103715.09
2019-02-22T20:10:17.835Z,103722.25
2019-02-22T20:12:44.274Z,103713.52
2019-02-22T20:15:14.751Z,103717.49
2019-02-22T20:17:53.321Z,103722.36
2019-02-22T20:20:15.827Z,103720.97
2019-02-22T20:22:44.247Z,103714.48
2019-02-22T20:25:12.985Z,103712.69
2019-02-22T20:27:41.825Z,103714.77
2019-02-22T20:30:16.182Z,103718.97
2019-02-22T20:32:44.449Z,103715.37
2019-02-22T20:35:22.519Z,103719.93
2019-02-22T20:37:53.044Z,103722.27
2019-02-22T20:40:21.340Z,103717.01
2019-02-22T20:42:49.807Z,103719.55
2019-02-22T20:45:18.530Z,103730.04
2019-02-22T20:47:46.857Z,103718.84
2019-02-22T20:50:15.273Z,103720.78
2019-02-22T20:52:43.558Z,103718.16
2019-02-22T20:55:12.059Z,103729.56
2019-02-22T20:57:40.312Z,103734.87
2019-02-22T21:00:11.609Z,103737.08
2019-02-22T21:02:40.342Z,103744.25
2019-02-22T21:05:10.270Z,103744.70
2019-02-22T21:07:38.591Z,103766.62
2019-02-22T21:10:10.288Z,103770.89
2019-02-22T21:12:38.781Z,103774.02
2019-02-22T21:15:10.654Z,103786.39
2019-02-22T21:17:39.438Z,103791.11
2019-02-22T21:20:13.349Z,103790.77
2019-02-22T21:22:41.669Z,103793.28
2019-02-22T21:25:11.224Z,103788.23
2019-02-22T21:27:39.622Z,103776.09
2019-02-22T21:30:13.899Z,103780.86
2019-02-22T21:32:42.215Z,103779.14
2019-02-22T21:35:10.576Z,103788.69
2019-02-22T21:37:40.245Z,103793.00
2019-02-22T21:40:10.261Z,103787.50
2019-02-22T21:42:38.526Z,103785.78
2019-02-22T21:45:10.064Z,103794.19
2019-02-22T21:47:38.322Z,103793.28
2019-02-22T21:50:14.518Z,103786.34
2019-02-22T21:52:42.820Z,103787.59
2019-02-22T21:55:12.441Z,103790.52
2019-02-22T21:57:40.710Z,103789.09
2019-02-22T22:00:23.650Z,103789.66
2019-02-22T22:02:51.937Z,103779.70
2019-02-22T22:05:21.269Z,103780.36
2019-02-22T22:07:49.707Z,103775.27
2019-02-22T22:10:18.041Z,103773.13
2019-02-22T22:12:46.317Z,103775.63
2019-02-22T22:15:15.669Z,103769.43
2019-02-22T22:17:44.035Z,103769.45
2019-02-22T22:20:12.318Z,103760.75
2019-02-22T22:22:40.566Z,103759.95
2019-02-22T22:25:11.277Z,103758.39
2019-02-22T22:27:39.584Z,103760.67
2019-02-22T22:30:10.481Z,103754.77
2019-02-22T22:32:38.795Z,103756.64
2019-02-22T22:35:14.721Z,103753.63
2019-02-22T22:37:42.998Z,103754.87
2019-02-22T22:40:11.320Z,103768.34
2019-02-22T22:42:39.597Z,103765.97
2019-02-22T22:45:10.539Z,103761.71
2019-02-22T22:47:38.814Z,103770.60
2019-02-22T22:50:10.301Z,103769.25
2019-02-22T22:52:38.605Z,103762.51
2019-02-22T22:55:08.295Z,103763.95
2019-02-22T22:57:36.590Z,103768.61
2019-02-22T23:00:25.847Z,103762.45
2019-02-22T23:02:54.225Z,103758.30
2019-02-22T23:05:22.534Z,103757.86
2019-02-22T23:07:50.784Z,103756.26
2019-02-22T23:10:19.112Z,103771.55
2019-02-22T23:12:47.478Z,103772.98
2019-02-22T23:15:15.754Z,103787.14
2019-02-22T23:17:44.023Z,103783.57
2019-02-22T23:20:12.355Z,103783.57
2019-02-22T23:22:40.660Z,103783.55
2019-02-22T23:25:08.913Z,103786.20
2019-02-22T23:27:37.162Z,103786.20
2019-02-22T23:30:07.101Z,103781.19
2019-02-22T23:32:35.352Z,103784.66
2019-02-22T23:35:04.412Z,103777.00
2019-02-22T23:37:32.684Z,103777.00
2019-02-22T23:40:01.066Z,103782.34
2019-02-22T23:42:29.346Z,103778.52
2019-02-22T23:44:57.634Z,103781.69
2019-02-22T23:47:25.955Z,103778.77
2019-02-22T23:49:54.218Z,103773.99
2019-02-22T23:52:22.743Z,103761.61
2019-02-22T23:54:50.990Z,103765.44
2019-02-22T23:57:19.272Z,103765.44
2019-02-22T23:59:47.561Z,103770.20
